Time;durP1;ratioP1;P1;durP2;ratioP2;P2;SDS_P1;SDS_P2;PMS_P1;PMS_P2;Temp;Humidity;BMP_temperature;BMP_pressure;BME280_temperature;BME280_humidity;BME280_pressure;Samples;Min_cycle;Max_cycle;Signal;HPM_P1;HPM_P2
2022/01/15 00:00:07;;;;;;;;;1.50;0.50;;;;;5.70;40.54;101566.06;5026424;28;46498;-69
2022/01/15 00:02:33;;;;;;;;;0.75;0.75;;;;;5.75;40.69;101564.69;5025627;28;45331;-70
2022/01/15 00:04:58;;;;;;;;;1.00;1.00;;;;;5.71;39.43;101548.03;5027738;28;45441;-70
2022/01/15 00:07:24;;;;;;;;;1.25;1.00;;;;;5.76;39.58;101551.81;5026888;28;45374;-70
2022/01/15 00:09:50;;;;;;;;;0.75;0.25;;;;;5.63;40.03;101543.13;5025533;28;46083;-70
2022/01/15 00:12:16;;;;;;;;;2.00;1.00;;;;;5.68;39.77;101555.59;5027450;28;45313;-70
2022/01/15 00:14:42;;;;;;;;;2.00;0.75;;;;;5.69;39.97;101556.47;5026211;28;45502;-71
2022/01/15 00:19:54;;;;;;;;;0.75;0.75;;;;;5.81;39.47;101559.00;5020612;28;46287;-71
2022/01/15 00:22:20;;;;;;;;;0.50;0.50;;;;;5.78;39.40;101558.00;5026725;28;45390;-70
2022/01/15 00:24:46;;;;;;;;;1.00;1.00;;;;;5.80;38.69;101554.63;5032106;28;45311;-70
2022/01/15 00:27:12;;;;;;;;;1.00;1.00;;;;;5.78;39.37;101555.41;5028183;28;45494;-70
2022/01/15 00:29:38;;;;;;;;;0.50;0.50;;;;;5.83;39.62;101549.59;5027182;28;45643;-70
2022/01/15 00:32:06;;;;;;;;;1.00;0.50;;;;;5.84;39.67;101548.81;5041239;28;45502;-70
2022/01/15 00:34:32;;;;;;;;;1.00;1.00;;;;;5.84;39.54;101547.13;5025567;28;45558;-70
2022/01/15 00:36:58;;;;;;;;;1.00;1.00;;;;;5.84;39.50;101546.22;5027486;28;45495;-70
2022/01/15 00:39:24;;;;;;;;;1.25;1.00;;;;;5.72;39.85;101528.19;5025821;28;45609;-70
2022/01/15 00:41:50;;;;;;;;;1.00;1.00;;;;;5.76;39.25;101535.34;5031586;28;45923;-70
2022/01/15 00:44:16;;;;;;;;;2.00;1.00;;;;;5.72;39.12;101534.25;5024803;28;45376;-70
2022/01/15 00:46:42;;;;;;;;;2.50;1.50;;;;;5.66;39.93;101535.56;5031326;28;45695;-70
2022/01/15 00:49:09;;;;;;;;;1.50;1.50;;;;;5.57;39.83;101530.66;5023841;28;45494;-70
2022/01/15 00:51:35;;;;;;;;;3.00;2.00;;;;;5.57;39.46;101528.97;5026656;28;45333;-69
2022/01/15 00:54:00;;;;;;;;;1.75;1.00;;;;;5.62;39.93;101531.88;5025626;28;45315;-70
2022/01/15 00:56:26;;;;;;;;;5.75;2.25;;;;;5.63;39.96;101533.69;5026474;28;45617;-70
2022/01/15 00:58:52;;;;;;;;;1.00;1.00;;;;;5.63;39.70;101538.88;5027602;28;45339;-70
2022/01/15 01:01:20;;;;;;;;;0.75;0.75;;;;;5.64;39.53;101535.47;5028730;28;45473;-70
2022/01/15 01:03:47;;;;;;;;;1.00;1.00;;;;;5.69;39.75;101523.69;5024734;28;45344;-69
2022/01/15 01:06:13;;;;;;;;;1.50;1.00;;;;;5.70;39.66;101530.66;5024843;28;45486;-70
2022/01/15 01:08:38;;;;;;;;;2.00;1.00;;;;;5.69;39.60;101531.47;5026370;28;45521;-70
2022/01/15 01:11:11;;;;;;;;;2.25;2.25;;;;;5.69;39.67;101527.97;5025448;28;45462;-70
2022/01/15 01:20:04;;;;;;;;;2.00;2.00;;;;;5.69;39.67;101528.88;5024730;28;45400;-71
2022/01/15 01:24:44;;;;;;;;;2.00;1.25;;;;;5.54;40.21;101523.59;5027245;28;45348;-69
2022/01/15 01:27:17;;;;;;;;;1.00;1.00;;;;;5.58;40.02;101524.69;5025016;28;45419;-70
2022/01/15 01:34:52;;;;;;;;;2.00;1.50;;;;;5.50;40.26;101511.22;5024564;28;45572;-70
2022/01/15 01:37:29;;;;;;;;;2.75;2.00;;;;;5.57;40.16;101513.44;5026508;28;45516;-71
2022/01/15 01:40:07;;;;;;;;;0.00;0.00;;;;;5.63;40.27;101512.00;5033870;28;46214;-71
2022/01/15 01:42:42;;;;;;;;;2.00;1.00;;;;;5.65;40.36;101513.00;5037310;28;45361;-70
2022/01/15 01:45:14;;;;;;;;;1.75;1.00;;;;;5.69;39.83;101507.22;5036833;28;45428;-71
2022/01/15 01:47:42;;;;;;;;;1.00;1.00;;;;;5.65;39.95;101508.75;5036954;28;45482;-70
2022/01/15 01:50:11;;;;;;;;;1.75;1.75;;;;;5.61;40.37;101514.53;5052015;28;45362;-70
2022/01/15 01:52:37;;;;;;;;;1.00;1.00;;;;;5.48;39.95;101498.97;5036615;28;45387;-70
2022/01/15 01:55:03;;;;;;;;;2.00;2.00;;;;;5.53;40.57;101513.09;5037028;28;45415;-70
2022/01/15 01:57:29;;;;;;;;;1.00;1.00;;;;;5.56;40.77;101510.72;5037446;28;45469;-71
2022/01/15 01:59:54;;;;;;;;;2.50;2.00;;;;;5.54;40.83;101501.97;5036599;28;45878;-70
2022/01/15 02:02:20;;;;;;;;;1.00;1.00;;;;;5.54;40.43;101515.81;5036751;28;45173;-71
2022/01/15 02:04:46;;;;;;;;;2.75;2.00;;;;;5.52;40.71;101509.63;5040209;28;45219;-70
2022/01/15 02:07:12;;;;;;;;;2.25;2.25;;;;;5.38;40.79;101490.56;5040388;28;46017;-71
2022/01/15 02:09:38;;;;;;;;;2.00;2.00;;;;;5.54;40.68;101514.91;5039895;28;45470;-71
2022/01/15 02:12:04;;;;;;;;;2.00;2.00;;;;;5.47;40.68;101500.66;5038742;28;45595;-70
2022/01/15 02:14:30;;;;;;;;;1.50;1.50;;;;;5.38;41.16;101494.88;5039106;28;45664;-71
2022/01/15 02:16:57;;;;;;;;;4.50;2.00;;;;;5.49;40.72;101512.03;5040382;28;45424;-70
2022/01/15 02:19:31;;;;;;;;;1.75;1.25;;;;;5.43;41.06;101513.31;5039907;28;45449;-71
2022/01/15 02:24:41;;;;;;;;;2.00;2.00;;;;;5.28;41.64;101483.00;5040011;28;45470;-71
2022/01/15 02:27:07;;;;;;;;;2.25;2.25;;;;;5.33;41.47;101497.16;5040129;28;45367;-70
2022/01/15 02:29:32;;;;;;;;;1.75;1.75;;;;;5.21;41.48;101479.91;5055389;28;46345;-70
2022/01/15 02:31:58;;;;;;;;;1.75;1.00;;;;;5.23;41.56;101488.66;5055038;28;45501;-70
2022/01/15 02:34:23;;;;;;;;;2.75;2.75;;;;;5.20;41.46;101489.38;5039615;28;45541;-71
2022/01/15 02:36:49;;;;;;;;;2.00;2.00;;;;;5.12;41.86;101483.66;5039826;28;45269;-70
2022/01/15 02:39:14;;;;;;;;;2.00;2.00;;;;;5.23;41.83;101483.47;5039331;28;45478;-70
2022/01/15 02:41:41;;;;;;;;;3.00;2.75;;;;;5.27;41.15;101489.00;5039595;28;45410;-71
2022/01/15 02:44:14;;;;;;;;;3.00;2.50;;;;;5.30;41.14;101488.28;5039902;28;45370;-70
2022/01/15 02:49:14;;;;;;;;;2.00;1.75;;;;;5.25;41.62;101492.25;5039447;28;46143;-71
2022/01/15 02:51:40;;;;;;;;;2.00;2.00;;;;;5.12;41.41;101462.94;5039229;28;45555;-70
2022/01/15 02:54:06;;;;;;;;;2.75;2.00;;;;;5.32;41.00;101482.41;5039814;28;45318;-71
2022/01/15 02:56:39;;;;;;;;;4.75;3.00;;;;;5.35;40.99;101480.03;5038421;28;45634;-70
2022/01/15 02:59:07;;;;;;;;;3.00;2.25;;;;;5.33;40.82;101479.03;5038274;28;46350;-71
2022/01/15 03:01:33;;;;;;;;;3.50;3.00;;;;;5.33;40.73;101481.63;5039696;28;45488;-71
2022/01/15 03:04:00;;;;;;;;;2.25;1.25;;;;;5.31;41.03;101483.22;5039302;28;45245;-70
2022/01/15 03:06:25;;;;;;;;;4.00;3.00;;;;;5.30;40.66;101477.94;5039141;28;45499;-71
2022/01/15 03:08:52;;;;;;;;;3.00;2.50;;;;;5.22;40.63;101461.88;5038991;28;46136;-70
2022/01/15 03:11:18;;;;;;;;;3.00;3.00;;;;;5.22;41.01;101463.56;5039182;28;45402;-71
2022/01/15 03:13:44;;;;;;;;;2.00;2.00;;;;;5.21;40.44;101446.22;5037430;28;45338;-70
2022/01/15 03:16:13;;;;;;;;;2.00;2.00;;;;;5.33;40.83;101465.16;5039297;28;45204;-70
2022/01/15 03:18:39;;;;;;;;;2.25;2.25;;;;;5.30;40.64;101452.91;5054261;28;46480;-70
2022/01/15 03:21:05;;;;;;;;;3.00;2.00;;;;;5.28;41.23;101453.63;5039070;28;45447;-71
2022/01/15 03:23:31;;;;;;;;;2.00;1.50;;;;;5.13;41.02;101443.13;5037787;28;45327;-70
2022/01/15 03:25:57;;;;;;;;;2.00;2.00;;;;;5.17;40.84;101450.28;5039177;28;45307;-71
2022/01/15 03:28:22;;;;;;;;;2.50;2.25;;;;;5.22;40.56;101455.81;5038959;28;45931;-71
2022/01/15 03:30:48;;;;;;;;;2.00;1.25;;;;;5.14;40.60;101431.97;5038734;28;45427;-70
2022/01/15 03:33:14;;;;;;;;;1.75;1.75;;;;;5.17;40.40;101424.38;5038872;28;45406;-70
2022/01/15 03:35:40;;;;;;;;;3.00;2.00;;;;;5.16;40.17;101415.72;5039427;28;45697;-71
2022/01/15 03:38:07;;;;;;;;;1.50;1.00;;;;;5.22;40.28;101423.00;5054591;28;45518;-71
2022/01/15 03:40:33;;;;;;;;;5.50;5.00;;;;;5.15;40.31;101411.38;5038739;28;45348;-70
2022/01/15 03:42:59;;;;;;;;;1.00;1.00;;;;;5.18;39.96;101421.91;5038813;28;45291;-71
2022/01/15 03:45:25;;;;;;;;;2.00;2.00;;;;;5.14;40.07;101413.84;5038785;28;45536;-70
2022/01/15 03:47:50;;;;;;;;;2.25;2.25;;;;;5.24;39.84;101417.94;5038353;28;45508;-71
2022/01/15 03:50:18;;;;;;;;;2.00;1.00;;;;;5.28;39.86;101414.75;5038524;28;45410;-70
2022/01/15 03:52:44;;;;;;;;;3.00;3.00;;;;;5.31;39.57;101410.66;5038524;28;45513;-70
2022/01/15 03:55:11;;;;;;;;;2.25;2.25;;;;;5.28;39.02;101397.50;5038945;28;45401;-70
2022/01/15 03:57:38;;;;;;;;;2.75;2.00;;;;;5.33;38.85;101403.91;5038679;28;45386;-71
2022/01/15 04:00:16;;;;;;;;;2.00;2.00;;;;;5.35;38.91;101409.16;5038263;28;45545;-70
2022/01/15 04:02:42;;;;;;;;;2.00;2.00;;;;;5.34;38.98;101404.78;5038300;28;45426;-69
2022/01/15 04:05:09;;;;;;;;;2.00;2.00;;;;;5.30;38.28;101400.19;5038848;28;45493;-71
2022/01/15 04:07:34;;;;;;;;;1.50;1.00;;;;;5.25;38.39;101399.00;5038264;28;45309;-70
2022/01/15 04:10:00;;;;;;;;;2.75;2.00;;;;;5.13;38.64;101386.13;5038201;28;45306;-71
2022/01/15 04:12:25;;;;;;;;;5.00;1.75;;;;;5.21;38.72;101395.31;5038377;28;45243;-70
2022/01/15 04:14:51;;;;;;;;;2.00;1.75;;;;;5.30;39.15;101398.50;5038526;28;45456;-70
2022/01/15 04:17:16;;;;;;;;;1.00;1.00;;;;;5.38;38.05;101397.28;5038101;28;46253;-70
2022/01/15 04:19:42;;;;;;;;;2.00;1.75;;;;;5.41;38.45;101399.19;5038349;28;45461;-71
2022/01/15 04:22:07;;;;;;;;;1.75;1.75;;;;;5.35;37.86;101411.75;5038507;28;45503;-71
2022/01/15 04:24:33;;;;;;;;;2.50;2.00;;;;;5.30;38.20;101401.09;5037637;28;45273;-70
2022/01/15 04:26:58;;;;;;;;;3.00;2.25;;;;;5.41;37.71;101409.53;5037979;28;45481;-70
2022/01/15 04:29:24;;;;;;;;;2.00;2.00;;;;;5.26;38.12;101383.56;5037864;28;45422;-70
2022/01/15 04:31:51;;;;;;;;;2.50;2.00;;;;;5.19;38.69;101391.72;5038145;28;45461;-70
2022/01/15 04:34:24;;;;;;;;;2.00;1.50;;;;;5.26;38.43;101404.28;5038000;28;45517;-70
2022/01/15 04:36:52;;;;;;;;;2.00;1.00;;;;;5.23;38.41;101406.66;5037547;28;46259;-70
2022/01/15 04:39:18;;;;;;;;;2.00;1.00;;;;;5.20;38.20;101409.06;5037718;28;45414;-70
2022/01/15 04:41:44;;;;;;;;;2.00;1.00;;;;;5.15;38.39;101393.22;5037994;28;45391;-70
2022/01/15 04:44:10;;;;;;;;;3.00;3.00;;;;;5.10;38.12;101383.38;5038114;28;45166;-70
2022/01/15 04:46:37;;;;;;;;;3.00;2.50;;;;;5.27;37.88;101403.50;5037263;28;45784;-71
2022/01/15 04:49:04;;;;;;;;;2.00;2.00;;;;;5.20;38.39;101403.88;5037651;28;45504;-70
2022/01/15 04:51:29;;;;;;;;;1.00;1.00;;;;;5.17;38.06;101401.06;5037849;28;45478;-70
2022/01/15 04:53:55;;;;;;;;;3.00;2.00;;;;;5.16;38.56;101401.88;5037795;28;45447;-71
2022/01/15 04:56:21;;;;;;;;;2.50;1.75;;;;;5.13;38.66;101404.25;5052851;28;46225;-70
2022/01/15 04:58:47;;;;;;;;;3.00;2.25;;;;;5.11;38.54;101404.19;5037491;28;46050;-70
2022/01/15 05:01:12;;;;;;;;;2.00;1.00;;;;;4.99;38.79;101385.22;5037903;28;45461;-70
2022/01/15 05:03:38;;;;;;;;;2.00;2.00;;;;;4.91;39.12;101383.84;5037535;28;45234;-70
2022/01/15 05:06:04;;;;;;;;;2.00;2.00;;;;;4.97;39.48;101395.50;5037381;28;45453;-70
2022/01/15 05:08:29;;;;;;;;;2.00;2.00;;;;;4.86;39.46;101388.72;5037280;28;45396;-70
2022/01/15 05:10:58;;;;;;;;;1.50;1.50;;;;;4.85;39.58;101397.25;5037402;28;45224;-70
2022/01/15 05:13:28;;;;;;;;;4.00;2.00;;;;;4.83;39.84;101403.16;5036091;28;45494;-70
2022/01/15 05:15:54;;;;;;;;;3.00;2.00;;;;;4.63;40.60;101382.00;5052199;28;45406;-70
2022/01/15 05:18:20;;;;;;;;;3.00;2.00;;;;;4.65;40.60;101387.28;5036888;28;45484;-71
2022/01/15 05:20:46;;;;;;;;;2.25;1.25;;;;;4.55;40.86;101386.66;5052897;28;45484;-70
2022/01/15 05:23:12;;;;;;;;;2.50;2.00;;;;;4.48;41.23;101386.16;5037794;28;45501;-71
2022/01/15 05:25:39;;;;;;;;;2.00;2.00;;;;;4.46;40.73;101380.88;5036798;28;46052;-71
2022/01/15 05:28:05;;;;;;;;;2.00;1.50;;;;;4.51;40.29;101378.59;5036859;28;45466;-71
2022/01/15 05:30:32;;;;;;;;;4.00;2.00;;;;;4.49;40.43;101378.47;5037207;28;45238;-71
2022/01/15 05:32:58;;;;;;;;;3.00;1.00;;;;;4.50;40.47;101375.09;5037111;28;45710;-70
2022/01/15 05:35:26;;;;;;;;;2.00;2.00;;;;;4.50;40.59;101377.69;5036581;28;45966;-71
2022/01/15 05:37:59;;;;;;;;;3.00;1.75;;;;;4.44;41.10;101379.88;5036692;28;45472;-71
2022/01/15 05:40:26;;;;;;;;;3.00;2.00;;;;;4.41;41.46;101376.19;5036930;28;45560;-71
2022/01/15 05:42:52;;;;;;;;;2.50;2.00;;;;;4.36;41.07;101381.94;5036008;28;45370;-71
2022/01/15 05:45:18;;;;;;;;;1.00;1.00;;;;;4.35;41.41;101379.22;5036739;28;45422;-70
2022/01/15 05:47:44;;;;;;;;;3.00;3.00;;;;;4.22;41.23;101369.75;5037061;28;45498;-71
2022/01/15 05:50:10;;;;;;;;;3.25;2.25;;;;;4.30;41.37;101383.22;5036909;28;45612;-70
2022/01/15 05:52:36;;;;;;;;;1.00;1.00;;;;;4.31;41.46;101380.72;5037030;28;45311;-70
2022/01/15 05:55:02;;;;;;;;;3.00;3.00;;;;;4.42;40.77;101377.94;5036384;28;45473;-71
2022/01/15 05:57:28;;;;;;;;;2.00;1.50;;;;;4.44;41.18;101377.28;5036481;28;45397;-70
2022/01/15 05:59:53;;;;;;;;;3.00;2.00;;;;;4.48;41.02;101378.41;5036569;28;45438;-70
2022/01/15 06:02:20;;;;;;;;;2.00;2.00;;;;;4.48;40.53;101388.75;5036785;28;45621;-70
2022/01/15 06:04:45;;;;;;;;;2.50;2.00;;;;;4.51;40.75;101384.66;5036954;28;46097;-72
2022/01/15 06:07:11;;;;;;;;;2.50;2.00;;;;;4.54;40.52;101389.16;5036625;28;45356;-71
2022/01/15 06:09:36;;;;;;;;;1.25;1.25;;;;;4.55;40.41;101390.94;5036731;28;45421;-70
2022/01/15 06:12:02;;;;;;;;;2.00;1.75;;;;;4.55;40.81;101391.81;5036814;28;45494;-71
2022/01/15 06:14:30;;;;;;;;;2.00;2.00;;;;;4.50;40.72;101381.97;5035044;28;45463;-69
2022/01/15 06:16:56;;;;;;;;;3.00;2.50;;;;;4.54;40.65;101387.47;5036290;28;45177;-70
2022/01/15 06:19:22;;;;;;;;;19.25;18.50;;;;;4.54;40.81;101395.22;5051757;28;45459;-70
2022/01/15 06:21:47;;;;;;;;;5.00;3.50;;;;;4.53;40.62;101398.59;5036875;28;45311;-70
2022/01/15 06:24:13;;;;;;;;;2.00;2.00;;;;;4.48;40.64;101386.16;5034935;28;45700;-70
2022/01/15 06:26:38;;;;;;;;;5.00;2.75;;;;;4.41;40.91;101381.34;5036384;28;45257;-70
2022/01/15 06:29:04;;;;;;;;;3.25;2.75;;;;;4.53;40.86;101400.28;5027935;28;45874;-69
2022/01/15 06:31:31;;;;;;;;;5.00;3.00;;;;;4.42;41.01;101383.13;5015245;28;45569;-69
2022/01/15 06:33:57;;;;;;;;;2.25;2.00;;;;;4.45;41.18;101402.34;5016044;28;45509;-70
2022/01/15 06:36:23;;;;;;;;;6.00;5.00;;;;;4.44;41.70;101404.84;5031244;28;45442;-70
2022/01/15 06:38:49;;;;;;;;;7.00;5.00;;;;;4.42;41.41;101404.75;5016321;28;45477;-70
2022/01/15 06:41:15;;;;;;;;;3.00;3.00;;;;;4.30;41.63;101388.38;5016524;28;45474;-69
2022/01/15 06:43:41;;;;;;;;;5.75;3.00;;;;;4.39;41.35;101409.69;5015923;28;45448;-69
2022/01/15 06:46:06;;;;;;;;;3.00;3.00;;;;;4.39;41.84;101412.28;5016092;28;45314;-69
2022/01/15 06:48:32;;;;;;;;;5.75;5.00;;;;;4.26;41.61;101386.34;5017842;28;45507;-70
2022/01/15 06:50:58;;;;;;;;;3.00;3.00;;;;;4.42;41.68;101420.25;5019717;28;45444;-70
2022/01/15 06:53:24;;;;;;;;;4.50;4.00;;;;;4.44;41.41;101429.03;5019254;28;46317;-69
2022/01/15 06:55:52;;;;;;;;;6.50;5.50;;;;;4.43;41.57;101424.63;5019365;28;45431;-70
2022/01/15 06:58:20;;;;;;;;;6.00;4.50;;;;;4.42;41.56;101430.63;5019730;28;45427;-70
2022/01/15 07:00:46;;;;;;;;;9.75;9.00;;;;;4.39;42.36;101426.09;5019461;28;45479;-70
2022/01/15 07:03:12;;;;;;;;;8.50;6.75;;;;;4.34;42.35;101434.38;5034177;28;46298;-69
2022/01/15 07:05:38;;;;;;;;;5.25;5.00;;;;;4.26;42.34;101417.38;5018851;28;45617;-70
2022/01/15 07:08:04;;;;;;;;;3.00;3.00;;;;;4.29;42.22;101435.72;5018938;28;45502;-69
2022/01/15 07:10:29;;;;;;;;;7.00;6.50;;;;;4.35;41.48;101430.97;5019294;28;45328;-69
2022/01/15 07:12:55;;;;;;;;;7.00;6.00;;;;;4.29;41.79;101420.19;5018857;28;45454;-70
2022/01/15 07:15:21;;;;;;;;;17.00;14.25;;;;;4.36;41.99;101417.25;5019395;28;45320;-70
2022/01/15 07:17:48;;;;;;;;;7.00;7.00;;;;;4.51;42.20;101431.22;5019526;28;45236;-68
2022/01/15 07:20:16;;;;;;;;;7.50;7.00;;;;;4.56;42.23;101447.09;5019349;28;45272;-72
2022/01/15 07:22:42;;;;;;;;;10.00;9.00;;;;;4.58;41.90;101448.97;5018738;28;45475;-70
2022/01/15 07:25:09;;;;;;;;;6.50;6.00;;;;;4.65;41.47;101459.75;5018689;28;45506;-70
2022/01/15 07:27:36;;;;;;;;;3.00;2.50;;;;;4.68;41.53;101457.38;5018845;28;45367;-71
2022/01/15 07:30:04;;;;;;;;;9.00;9.00;;;;;4.69;41.56;101460.03;5032554;28;45638;-71
2022/01/15 07:32:29;;;;;;;;;14.25;13.00;;;;;4.19;41.77;101367.81;5037829;28;46353;-71
2022/01/15 07:34:55;;;;;;;;;10.50;10.25;;;;;4.74;41.75;101463.84;5038254;28;45778;-72
2022/01/15 07:37:20;;;;;;;;;11.75;11.00;;;;;4.78;41.70;101462.38;5037850;28;45648;-71
2022/01/15 07:39:46;;;;;;;;;14.00;10.75;;;;;4.80;41.66;101462.50;5038069;28;45528;-71
2022/01/15 07:42:11;;;;;;;;;10.25;9.50;;;;;4.86;41.22;101463.78;5036359;28;46499;-71
2022/01/15 07:44:37;;;;;;;;;9.50;7.00;;;;;4.93;41.61;101463.44;5037932;28;45532;-71
2022/01/15 07:47:03;;;;;;;;;6.75;6.75;;;;;4.97;41.21;101468.00;5037922;28;45481;-71
2022/01/15 07:49:29;;;;;;;;;5.75;5.75;;;;;4.95;41.02;101454.06;5037953;28;45588;-71
2022/01/15 07:51:54;;;;;;;;;9.00;9.00;;;;;5.07;40.74;101471.19;5036087;28;45621;-71
2022/01/15 07:54:20;;;;;;;;;9.50;7.75;;;;;4.98;41.30;101451.66;5037834;28;45293;-70
2022/01/15 07:56:45;;;;;;;;;6.00;6.00;;;;;5.10;40.54;101461.94;5037436;28;45419;-70
2022/01/15 07:59:11;;;;;;;;;6.50;6.50;;;;;5.21;40.55;101480.78;5036755;28;45501;-71
2022/01/15 08:01:36;;;;;;;;;7.00;6.50;;;;;5.15;40.52;101470.94;5037258;28;45320;-71
2022/01/15 08:04:03;;;;;;;;;7.00;7.00;;;;;5.16;41.26;101479.59;5037284;28;45577;-70
2022/01/15 08:06:29;;;;;;;;;7.00;6.00;;;;;5.11;41.11;101478.38;5037594;28;45482;-70
2022/01/15 08:08:55;;;;;;;;;8.75;8.25;;;;;4.98;41.48;101456.84;5036244;28;45558;-70
2022/01/15 08:11:20;;;;;;;;;6.25;6.00;;;;;5.09;41.46;101485.16;5037679;28;45399;-72
2022/01/15 08:13:46;;;;;;;;;7.00;6.00;;;;;5.09;41.94;101482.56;5037053;28;45593;-70
2022/01/15 08:16:12;;;;;;;;;9.50;9.00;;;;;5.07;41.99;101490.22;5037138;28;45553;-70
2022/01/15 08:18:38;;;;;;;;;8.25;7.00;;;;;5.04;41.93;101487.44;5037404;28;45621;-70
2022/01/15 08:21:05;;;;;;;;;8.25;7.25;;;;;5.04;41.82;101500.38;5037046;28;45438;-70
2022/01/15 08:23:31;;;;;;;;;6.00;5.00;;;;;5.07;41.89;101491.91;5037159;28;45304;-70
2022/01/15 08:25:58;;;;;;;;;5.75;5.00;;;;;5.16;41.33;101498.63;5037100;28;45348;-71
2022/01/15 08:28:25;;;;;;;;;5.00;5.00;;;;;5.24;41.66;101493.06;5037823;28;45434;-70
2022/01/15 08:30:50;;;;;;;;;6.00;3.50;;;;;5.33;41.37;101497.16;5037191;28;46061;-70
2022/01/15 08:33:16;;;;;;;;;8.75;7.00;;;;;5.37;41.50;101504.34;5035487;28;45403;-70
2022/01/15 08:35:42;;;;;;;;;2.00;2.00;;;;;5.44;41.52;101505.63;5037114;28;45498;-70
2022/01/15 08:38:07;;;;;;;;;6.00;5.25;;;;;5.52;41.07;101503.56;5037171;28;45318;-71
2022/01/15 08:40:33;;;;;;;;;6.25;5.00;;;;;5.51;41.09;101500.06;5036907;28;45382;-71
2022/01/15 08:43:03;;;;;;;;;8.75;6.00;;;;;5.65;41.13;101506.16;5036995;28;45375;-71
2022/01/15 08:45:29;;;;;;;;;7.50;6.00;;;;;5.76;41.17;101507.72;5036967;28;45383;-71
2022/01/15 08:47:54;;;;;;;;;5.50;5.50;;;;;5.85;40.28;101511.72;5037837;28;45524;-71
2022/01/15 08:50:21;;;;;;;;;8.00;7.00;;;;;5.85;40.57;101491.88;5033693;28;46016;-72
2022/01/15 08:52:47;;;;;;;;;5.75;5.75;;;;;6.00;40.93;101498.88;5036294;28;45425;-71
2022/01/15 08:55:14;;;;;;;;;11.50;10.75;;;;;6.06;40.47;101505.34;5048964;28;45602;-71
2022/01/15 08:57:40;;;;;;;;;10.50;7.00;;;;;6.15;40.86;101507.63;5056332;28;45627;-71
2022/01/15 09:00:09;;;;;;;;;12.50;10.75;;;;;6.30;40.37;101497.31;5045717;27;45370;-71
2022/01/15 09:02:34;;;;;;;;;7.00;6.50;;;;;6.39;40.25;101505.69;5076885;27;45413;-71
2022/01/15 09:05:00;;;;;;;;;8.25;6.75;;;;;6.39;39.86;101482.31;5076625;27;45495;-71
2022/01/15 09:07:26;;;;;;;;;9.50;8.00;;;;;6.55;39.74;101499.75;5075504;28;45437;-70
2022/01/15 09:09:51;;;;;;;;;9.25;6.25;;;;;6.64;39.82;101500.28;5056564;28;45417;-70
2022/01/15 09:12:17;;;;;;;;;7.75;6.25;;;;;6.73;39.44;101498.25;5043616;28;45594;-70
2022/01/15 09:14:43;;;;;;;;;5.00;5.00;;;;;6.83;39.55;101497.13;5045462;28;45446;-70
2022/01/15 09:17:09;;;;;;;;;9.50;7.00;;;;;6.95;39.69;101492.66;5045082;28;45509;-70
2022/01/15 09:19:35;;;;;;;;;6.25;6.00;;;;;6.94;39.08;101470.09;5046354;28;45476;-71
2022/01/15 09:22:05;;;;;;;;;8.25;8.25;;;;;7.20;39.09;101491.50;5044999;28;45443;-72
2022/01/15 09:24:31;;;;;;;;;7.25;6.50;;;;;7.35;38.89;101494.09;5053730;28;46023;-71
2022/01/15 09:27:02;;;;;;;;;7.00;6.25;;;;;7.52;38.52;101487.25;5038627;28;45551;-72
2022/01/15 09:32:13;;;;;;;;;7.00;5.25;;;;;9.13;37.81;101487.28;5041635;28;45315;-71
2022/01/15 09:34:38;;;;;;;;;4.50;4.50;;;;;13.06;32.43;101474.50;5055995;28;45512;-71
2022/01/15 09:37:06;;;;;;;;;10.00;9.50;;;;;15.94;28.47;101450.34;5055395;28;45485;-71
2022/01/15 09:39:33;;;;;;;;;6.00;6.00;;;;;17.99;24.70;101461.19;5055476;28;45533;-72
2022/01/15 09:41:58;;;;;;;;;6.00;5.67;;;;;19.37;23.00;101451.28;5055574;28;45496;-72
2022/01/15 09:44:25;;;;;;;;;9.00;7.00;;;;;19.63;21.68;101455.88;5056253;28;45355;-72
2022/01/15 09:46:52;;;;;;;;;6.67;6.00;;;;;20.37;21.54;101451.03;5056053;28;45492;-72
2022/01/15 09:49:23;;;;;;;;;6.33;5.33;;;;;20.94;20.88;101448.56;5048894;28;46444;-72
2022/01/15 09:51:49;;;;;;;;;6.67;6.67;;;;;21.74;19.69;101446.81;5045762;28;45356;-73
2022/01/15 09:54:19;;;;;;;;;4.67;4.67;;;;;22.23;19.77;101432.50;5044089;28;45434;-73
2022/01/15 09:56:46;;;;;;;;;4.00;4.00;;;;;22.82;19.21;101447.31;5044840;28;45715;-73
2022/01/15 09:59:13;;;;;;;;;5.00;4.00;;;;;23.18;18.36;101439.09;5045704;28;46091;-72
2022/01/15 10:01:38;;;;;;;;;6.67;6.33;;;;;23.37;18.40;101437.16;5055338;28;45447;-71
2022/01/15 10:04:04;;;;;;;;;7.00;5.33;;;;;23.60;18.63;101445.81;5056040;28;45304;-72
2022/01/15 10:06:29;;;;;;;;;12.67;10.00;;;;;23.70;17.51;101446.63;5056071;28;45275;-71
2022/01/15 10:09:09;;;;;;;;;5.00;5.00;;;;;23.90;18.81;101438.44;5054218;28;46091;-72
2022/01/15 10:11:52;;;;;;;;;6.00;5.33;;;;;23.93;16.17;101446.41;5045648;28;45384;-76
2022/01/15 10:14:41;;;;;;;;;9.67;8.67;;;;;23.75;16.66;101449.25;5045863;28;45775;-75
2022/01/15 10:17:28;;;;;;;;;4.33;4.00;;;;;23.80;17.34;101443.00;5046917;28;45486;-80
2022/01/15 10:19:58;;;;;;;;;7.00;6.67;;;;;23.69;16.08;101430.63;5047026;28;45538;-77
2022/01/15 10:22:25;;;;;;;;;5.33;5.00;;;;;23.57;16.89;101443.19;5045480;28;45462;-73
2022/01/15 10:24:58;;;;;;;;;6.00;5.67;;;;;23.27;17.26;101449.66;5049868;28;45396;-75
2022/01/15 10:27:31;;;;;;;;;11.00;10.00;;;;;23.21;17.56;101441.72;5042517;28;45427;-79
2022/01/15 10:29:56;;;;;;;;;62.25;48.50;;;;;23.26;17.71;101437.25;5039496;28;45252;-79
2022/01/15 10:32:24;;;;;;;;;64.50;52.00;;;;;23.31;17.09;101445.22;5039514;28;45297;-73
2022/01/15 10:34:51;;;;;;;;;134.50;125.75;;;;;23.32;16.78;101436.31;5039671;28;45532;-74
2022/01/15 10:37:25;;;;;;;;;44.75;36.75;;;;;23.46;17.19;101439.75;5039322;28;45501;-80
2022/01/15 10:39:57;;;;;;;;;15.00;14.00;;;;;23.51;17.91;101416.56;5039827;28;45677;-71
2022/01/15 10:42:23;;;;;;;;;20.33;19.00;;;;;23.80;17.75;101426.97;5049435;28;45567;-71
2022/01/15 10:44:54;;;;;;;;;40.75;33.50;;;;;23.80;17.71;101428.78;5049283;28;45545;-71
2022/01/15 10:47:22;;;;;;;;;40.75;36.00;;;;;23.81;17.26;101435.84;5049675;28;45510;-71
2022/01/15 10:49:48;;;;;;;;;18.00;18.00;;;;;23.78;17.91;101430.56;5051596;28;47572;-71
2022/01/15 10:52:20;;;;;;;;;16.00;15.33;;;;;23.50;17.51;101422.81;5058350;28;45308;-70
2022/01/15 10:55:10;;;;;;;;;12.33;11.33;;;;;23.49;17.70;101428.16;5040819;28;45298;-71
2022/01/15 10:57:41;;;;;;;;;25.00;23.75;;;;;23.46;17.69;101433.50;5039055;28;45339;-71
2022/01/15 11:00:24;;;;;;;;;19.67;16.67;;;;;23.13;18.31;101427.59;5038946;28;46085;-71
2022/01/15 11:02:59;;;;;;;;;10.33;10.33;;;;;22.96;17.71;101423.25;5039190;28;45483;-71
2022/01/15 11:05:30;;;;;;;;;16.00;15.00;;;;;22.65;18.31;101419.88;5038912;28;45275;-71
2022/01/15 11:08:10;;;;;;;;;18.67;15.33;;;;;22.52;18.56;101420.84;5057459;28;45605;-70
2022/01/15 11:10:40;;;;;;;;;20.67;19.00;;;;;22.30;19.30;101415.63;5049197;28;46034;-71
2022/01/15 11:13:10;;;;;;;;;9.67;8.33;;;;;21.98;19.24;101413.94;5050902;28;45513;-71
2022/01/15 11:15:36;;;;;;;;;12.67;11.67;;;;;21.53;19.71;101399.88;5048142;28;45621;-71
2022/01/15 11:18:03;;;;;;;;;12.00;11.33;;;;;20.86;20.25;101400.75;5049915;28;45545;-71
2022/01/15 11:20:32;;;;;;;;;8.67;8.67;;;;;20.09;20.96;101400.50;5049212;28;45954;-71
2022/01/15 11:23:01;;;;;;;;;6.33;5.33;;;;;19.11;22.14;101403.38;5039687;28;45366;-71
2022/01/15 11:25:28;;;;;;;;;7.67;6.67;;;;;18.27;22.91;101406.91;5036850;28;45492;-72
2022/01/15 11:27:54;;;;;;;;;14.33;13.00;;;;;17.59;23.37;101402.44;5039086;28;45315;-71
2022/01/15 11:30:21;;;;;;;;;10.00;9.67;;;;;17.01;24.19;101405.03;5038588;28;45331;-71
2022/01/15 11:32:47;;;;;;;;;16.00;14.67;;;;;16.55;24.60;101406.78;5036622;28;45585;-72
2022/01/15 11:35:12;;;;;;;;;8.00;8.00;;;;;16.19;25.38;101401.66;5054018;28;45518;-72
2022/01/15 11:37:42;;;;;;;;;6.00;6.00;;;;;15.94;26.44;101397.66;5038410;28;45424;-71
2022/01/15 11:40:46;;;;;;;;;14.25;14.25;;;;;15.76;26.41;101393.75;5038423;28;45434;-71
2022/01/15 11:43:33;;;;;;;;;11.33;11.00;;;;;15.53;26.18;101393.19;5037678;28;45461;-71
2022/01/15 11:46:04;;;;;;;;;10.00;9.00;;;;;15.44;26.52;101387.72;5038565;28;45495;-70
2022/01/15 11:48:33;;;;;;;;;11.50;11.25;;;;;15.40;26.75;101383.19;5038707;28;45367;-72
2022/01/15 11:51:14;;;;;;;;;13.50;12.75;;;;;15.41;26.35;101377.09;5038533;28;45457;-71
2022/01/15 11:53:51;;;;;;;;;10.00;9.33;;;;;15.33;26.05;101379.53;5036716;28;45448;-72